sensor_id;sensor_type;location;lat;lon;timestamp;P1;durP1;ratioP1;P2;durP2;ratioP2
2544;SDS011;36212;48.838;9.142;2022-08-21T00:02:19;3.00;;;2.40;;
2544;SDS011;36212;48.838;9.142;2022-08-21T00:04:55;2.93;;;2.70;;
2544;SDS011;36212;48.838;9.142;2022-08-21T00:07:28;3.17;;;2.87;;
2544;SDS011;36212;48.838;9.142;2022-08-21T00:10:00;4.97;;;2.57;;
2544;SDS011;36212;48.838;9.142;2022-08-21T00:12:34;2.90;;;2.70;;
2544;SDS011;36212;48.838;9.142;2022-08-21T00:15:07;4.33;;;2.67;;
2544;SDS011;36212;48.838;9.142;2022-08-21T00:17:48;2.90;;;2.70;;
2544;SDS011;36212;48.838;9.142;2022-08-21T00:20:21;2.87;;;2.60;;
2544;SDS011;36212;48.838;9.142;2022-08-21T00:22:54;4.47;;;2.80;;
2544;SDS011;36212;48.838;9.142;2022-08-21T00:25:28;2.97;;;2.77;;
2544;SDS011;36212;48.838;9.142;2022-08-21T00:28:00;2.47;;;2.38;;
2544;SDS011;36212;48.838;9.142;2022-08-21T00:30:34;3.00;;;2.70;;
2544;SDS011;36212;48.838;9.142;2022-08-21T00:33:07;3.03;;;2.73;;
2544;SDS011;36212;48.838;9.142;2022-08-21T00:35:41;5.30;;;3.27;;
2544;SDS011;36212;48.838;9.142;2022-08-21T00:38:14;2.97;;;2.30;;
2544;SDS011;36212;48.838;9.142;2022-08-21T00:40:48;2.83;;;2.63;;
2544;SDS011;36212;48.838;9.142;2022-08-21T00:43:27;3.65;;;2.75;;
2544;SDS011;36212;48.838;9.142;2022-08-21T00:46:04;5.27;;;3.20;;
2544;SDS011;36212;48.838;9.142;2022-08-21T00:48:37;3.40;;;3.10;;
2544;SDS011;36212;48.838;9.142;2022-08-21T00:51:11;5.10;;;3.10;;
2544;SDS011;36212;48.838;9.142;2022-08-21T00:53:59;3.47;;;3.13;;
2544;SDS011;36212;48.838;9.142;2022-08-21T00:56:34;4.57;;;2.70;;
2544;SDS011;36212;48.838;9.142;2022-08-21T00:59:07;2.80;;;2.60;;
2544;SDS011;36212;48.838;9.142;2022-08-21T01:01:39;2.90;;;2.70;;
2544;SDS011;36212;48.838;9.142;2022-08-21T01:04:12;3.38;;;3.08;;
2544;SDS011;36212;48.838;9.142;2022-08-21T01:06:46;3.75;;;3.13;;
2544;SDS011;36212;48.838;9.142;2022-08-21T01:09:18;3.33;;;3.05;;
2544;SDS011;36212;48.838;9.142;2022-08-21T01:11:51;3.63;;;3.17;;
2544;SDS011;36212;48.838;9.142;2022-08-21T01:14:23;2.65;;;2.45;;
2544;SDS011;36212;48.838;9.142;2022-08-21T01:16:56;3.65;;;3.17;;
2544;SDS011;36212;48.838;9.142;2022-08-21T01:19:49;2.70;;;2.50;;
2544;SDS011;36212;48.838;9.142;2022-08-21T01:22:21;3.35;;;3.05;;
2544;SDS011;36212;48.838;9.142;2022-08-21T01:24:53;3.33;;;3.03;;
2544;SDS011;36212;48.838;9.142;2022-08-21T01:27:25;3.33;;;3.03;;
2544;SDS011;36212;48.838;9.142;2022-08-21T01:29:58;3.03;;;2.83;;
2544;SDS011;36212;48.838;9.142;2022-08-21T01:32:42;2.95;;;2.65;;
2544;SDS011;36212;48.838;9.142;2022-08-21T01:35:15;3.70;;;3.40;;
2544;SDS011;36212;48.838;9.142;2022-08-21T01:37:49;3.00;;;2.80;;
2544;SDS011;36212;48.838;9.142;2022-08-21T01:40:21;3.30;;;3.00;;
2544;SDS011;36212;48.838;9.142;2022-08-21T01:42:53;3.15;;;2.95;;
2544;SDS011;36212;48.838;9.142;2022-08-21T01:45:25;3.35;;;3.05;;
2544;SDS011;36212;48.838;9.142;2022-08-21T01:47:58;3.40;;;3.00;;
2544;SDS011;36212;48.838;9.142;2022-08-21T01:50:30;3.38;;;2.92;;
2544;SDS011;36212;48.838;9.142;2022-08-21T01:53:03;4.00;;;3.60;;
2544;SDS011;36212;48.838;9.142;2022-08-21T01:55:35;3.47;;;3.17;;
2544;SDS011;36212;48.838;9.142;2022-08-21T01:58:07;5.10;;;3.15;;
2544;SDS011;36212;48.838;9.142;2022-08-21T02:00:39;4.28;;;3.00;;
2544;SDS011;36212;48.838;9.142;2022-08-21T02:03:12;3.47;;;3.28;;
2544;SDS011;36212;48.838;9.142;2022-08-21T02:05:57;2.92;;;2.60;;
2544;SDS011;36212;48.838;9.142;2022-08-21T02:08:29;3.05;;;2.83;;
2544;SDS011;36212;48.838;9.142;2022-08-21T02:11:02;3.60;;;3.40;;
2544;SDS011;36212;48.838;9.142;2022-08-21T02:13:34;5.30;;;3.88;;
2544;SDS011;36212;48.838;9.142;2022-08-21T02:16:07;3.30;;;2.92;;
2544;SDS011;36212;48.838;9.142;2022-08-21T02:18:40;5.07;;;3.03;;
2544;SDS011;36212;48.838;9.142;2022-08-21T02:21:12;4.63;;;3.22;;
2544;SDS011;36212;48.838;9.142;2022-08-21T02:23:45;3.45;;;3.15;;
2544;SDS011;36212;48.838;9.142;2022-08-21T02:26:17;3.70;;;3.40;;
2544;SDS011;36212;48.838;9.142;2022-08-21T02:28:49;5.15;;;3.15;;
2544;SDS011;36212;48.838;9.142;2022-08-21T02:31:22;3.38;;;3.10;;
2544;SDS011;36212;48.838;9.142;2022-08-21T02:33:54;3.55;;;2.90;;
2544;SDS011;36212;48.838;9.142;2022-08-21T02:36:26;8.55;;;3.40;;
2544;SDS011;36212;48.838;9.142;2022-08-21T02:39:00;3.00;;;2.90;;
2544;SDS011;36212;48.838;9.142;2022-08-21T02:41:32;3.72;;;3.42;;
2544;SDS011;36212;48.838;9.142;2022-08-21T02:44:04;3.42;;;3.22;;
2544;SDS011;36212;48.838;9.142;2022-08-21T02:46:36;3.67;;;3.30;;
2544;SDS011;36212;48.838;9.142;2022-08-21T02:49:08;3.50;;;3.20;;
2544;SDS011;36212;48.838;9.142;2022-08-21T02:51:40;3.90;;;3.60;;
2544;SDS011;36212;48.838;9.142;2022-08-21T02:54:13;3.85;;;3.50;;
2544;SDS011;36212;48.838;9.142;2022-08-21T02:56:45;4.05;;;3.75;;
2544;SDS011;36212;48.838;9.142;2022-08-21T02:59:17;3.60;;;3.30;;
2544;SDS011;36212;48.838;9.142;2022-08-21T03:01:49;4.47;;;4.03;;
2544;SDS011;36212;48.838;9.142;2022-08-21T03:04:21;3.40;;;3.20;;
2544;SDS011;36212;48.838;9.142;2022-08-21T03:06:53;4.10;;;3.67;;
2544;SDS011;36212;48.838;9.142;2022-08-21T03:09:25;4.32;;;4.00;;
2544;SDS011;36212;48.838;9.142;2022-08-21T03:11:57;4.03;;;3.72;;
2544;SDS011;36212;48.838;9.142;2022-08-21T03:14:29;3.65;;;3.35;;
2544;SDS011;36212;48.838;9.142;2022-08-21T03:17:01;3.08;;;2.88;;
2544;SDS011;36212;48.838;9.142;2022-08-21T03:19:34;4.30;;;3.55;;
2544;SDS011;36212;48.838;9.142;2022-08-21T03:22:06;4.35;;;3.83;;
2544;SDS011;36212;48.838;9.142;2022-08-21T03:24:38;3.92;;;3.60;;
2544;SDS011;36212;48.838;9.142;2022-08-21T03:27:15;4.43;;;4.03;;
2544;SDS011;36212;48.838;9.142;2022-08-21T03:29:47;4.00;;;3.80;;
2544;SDS011;36212;48.838;9.142;2022-08-21T03:32:20;3.30;;;3.00;;
2544;SDS011;36212;48.838;9.142;2022-08-21T03:34:52;4.35;;;3.50;;
2544;SDS011;36212;48.838;9.142;2022-08-21T03:37:24;4.15;;;3.85;;
2544;SDS011;36212;48.838;9.142;2022-08-21T03:39:57;4.05;;;3.65;;
2544;SDS011;36212;48.838;9.142;2022-08-21T03:42:29;3.45;;;3.20;;
2544;SDS011;36212;48.838;9.142;2022-08-21T03:45:02;5.65;;;3.97;;
2544;SDS011;36212;48.838;9.142;2022-08-21T03:47:35;4.18;;;3.83;;
2544;SDS011;36212;48.838;9.142;2022-08-21T03:50:08;3.90;;;3.60;;
2544;SDS011;36212;48.838;9.142;2022-08-21T03:52:40;4.10;;;3.70;;
2544;SDS011;36212;48.838;9.142;2022-08-21T03:55:13;7.00;;;3.90;;
2544;SDS011;36212;48.838;9.142;2022-08-21T03:57:45;3.80;;;3.60;;
2544;SDS011;36212;48.838;9.142;2022-08-21T04:00:18;4.97;;;4.57;;
2544;SDS011;36212;48.838;9.142;2022-08-21T04:02:51;4.40;;;4.00;;
2544;SDS011;36212;48.838;9.142;2022-08-21T04:05:23;4.25;;;3.95;;
2544;SDS011;36212;48.838;9.142;2022-08-21T04:07:59;4.47;;;4.20;;
2544;SDS011;36212;48.838;9.142;2022-08-21T04:10:35;5.28;;;4.10;;
2544;SDS011;36212;48.838;9.142;2022-08-21T04:13:09;4.20;;;3.90;;
2544;SDS011;36212;48.838;9.142;2022-08-21T04:15:42;5.07;;;4.47;;
2544;SDS011;36212;48.838;9.142;2022-08-21T04:18:14;4.88;;;4.25;;
2544;SDS011;36212;48.838;9.142;2022-08-21T04:20:48;8.02;;;4.15;;
2544;SDS011;36212;48.838;9.142;2022-08-21T04:23:23;4.60;;;4.30;;
2544;SDS011;36212;48.838;9.142;2022-08-21T04:25:56;4.05;;;3.85;;
2544;SDS011;36212;48.838;9.142;2022-08-21T04:28:28;4.80;;;3.90;;
2544;SDS011;36212;48.838;9.142;2022-08-21T04:31:01;4.82;;;4.43;;
2544;SDS011;36212;48.838;9.142;2022-08-21T04:33:34;4.07;;;3.78;;
2544;SDS011;36212;48.838;9.142;2022-08-21T04:36:06;4.93;;;4.53;;
2544;SDS011;36212;48.838;9.142;2022-08-21T04:38:38;4.53;;;4.13;;
2544;SDS011;36212;48.838;9.142;2022-08-21T04:41:15;4.03;;;3.70;;
2544;SDS011;36212;48.838;9.142;2022-08-21T04:43:55;3.85;;;3.65;;
2544;SDS011;36212;48.838;9.142;2022-08-21T04:46:28;4.30;;;3.90;;
2544;SDS011;36212;48.838;9.142;2022-08-21T04:49:00;4.57;;;3.90;;
2544;SDS011;36212;48.838;9.142;2022-08-21T04:51:34;4.30;;;3.95;;
2544;SDS011;36212;48.838;9.142;2022-08-21T04:54:10;4.25;;;3.85;;
2544;SDS011;36212;48.838;9.142;2022-08-21T04:56:49;4.82;;;4.38;;
2544;SDS011;36212;48.838;9.142;2022-08-21T04:59:31;4.03;;;3.72;;
2544;SDS011;36212;48.838;9.142;2022-08-21T05:02:11;3.90;;;3.70;;
2544;SDS011;36212;48.838;9.142;2022-08-21T05:04:46;6.22;;;4.38;;
2544;SDS011;36212;48.838;9.142;2022-08-21T05:07:24;4.05;;;3.65;;
2544;SDS011;36212;48.838;9.142;2022-08-21T05:10:14;6.70;;;4.53;;
2544;SDS011;36212;48.838;9.142;2022-08-21T05:12:46;4.82;;;4.47;;
2544;SDS011;36212;48.838;9.142;2022-08-21T05:15:19;4.35;;;4.00;;
2544;SDS011;36212;48.838;9.142;2022-08-21T05:17:51;4.10;;;3.90;;
2544;SDS011;36212;48.838;9.142;2022-08-21T05:20:32;5.22;;;4.40;;
2544;SDS011;36212;48.838;9.142;2022-08-21T05:23:08;6.10;;;4.65;;
2544;SDS011;36212;48.838;9.142;2022-08-21T05:25:43;4.32;;;3.92;;
2544;SDS011;36212;48.838;9.142;2022-08-21T05:28:16;5.55;;;4.53;;
2544;SDS011;36212;48.838;9.142;2022-08-21T05:30:50;5.75;;;3.95;;
2544;SDS011;36212;48.838;9.142;2022-08-21T05:33:22;4.65;;;4.35;;
2544;SDS011;36212;48.838;9.142;2022-08-21T05:35:55;5.65;;;5.15;;
2544;SDS011;36212;48.838;9.142;2022-08-21T05:38:27;4.72;;;4.05;;
2544;SDS011;36212;48.838;9.142;2022-08-21T05:40:59;6.70;;;4.63;;
2544;SDS011;36212;48.838;9.142;2022-08-21T05:43:32;5.95;;;5.38;;
2544;SDS011;36212;48.838;9.142;2022-08-21T05:46:07;3.95;;;3.75;;
2544;SDS011;36212;48.838;9.142;2022-08-21T05:48:40;4.65;;;4.35;;
2544;SDS011;36212;48.838;9.142;2022-08-21T05:51:13;4.90;;;4.50;;
2544;SDS011;36212;48.838;9.142;2022-08-21T05:53:46;4.78;;;4.10;;
2544;SDS011;36212;48.838;9.142;2022-08-21T05:56:19;5.00;;;4.50;;
2544;SDS011;36212;48.838;9.142;2022-08-21T05:58:51;5.28;;;4.88;;
2544;SDS011;36212;48.838;9.142;2022-08-21T06:01:23;4.82;;;4.40;;
2544;SDS011;36212;48.838;9.142;2022-08-21T06:03:56;4.40;;;4.03;;
2544;SDS011;36212;48.838;9.142;2022-08-21T06:06:28;4.72;;;4.25;;
2544;SDS011;36212;48.838;9.142;2022-08-21T06:09:01;4.70;;;4.40;;
2544;SDS011;36212;48.838;9.142;2022-08-21T06:11:34;4.78;;;4.38;;
2544;SDS011;36212;48.838;9.142;2022-08-21T06:14:07;5.10;;;4.70;;
2544;SDS011;36212;48.838;9.142;2022-08-21T06:16:39;4.40;;;4.00;;
2544;SDS011;36212;48.838;9.142;2022-08-21T06:19:11;4.33;;;3.87;;
2544;SDS011;36212;48.838;9.142;2022-08-21T06:21:43;6.07;;;4.00;;
2544;SDS011;36212;48.838;9.142;2022-08-21T06:24:15;4.03;;;3.70;;
2544;SDS011;36212;48.838;9.142;2022-08-21T06:26:47;3.63;;;3.43;;
2544;SDS011;36212;48.838;9.142;2022-08-21T06:29:20;4.40;;;3.90;;
2544;SDS011;36212;48.838;9.142;2022-08-21T06:31:53;3.43;;;3.13;;
2544;SDS011;36212;48.838;9.142;2022-08-21T06:34:26;3.93;;;3.43;;
2544;SDS011;36212;48.838;9.142;2022-08-21T06:36:58;3.70;;;3.13;;
2544;SDS011;36212;48.838;9.142;2022-08-21T06:39:31;2.90;;;2.70;;
2544;SDS011;36212;48.838;9.142;2022-08-21T06:42:04;3.67;;;3.37;;
2544;SDS011;36212;48.838;9.142;2022-08-21T06:44:46;3.40;;;3.10;;
2544;SDS011;36212;48.838;9.142;2022-08-21T06:47:19;2.80;;;2.70;;
2544;SDS011;36212;48.838;9.142;2022-08-21T06:49:52;3.90;;;3.50;;
2544;SDS011;36212;48.838;9.142;2022-08-21T06:52:24;3.87;;;3.57;;
2544;SDS011;36212;48.838;9.142;2022-08-21T06:54:56;2.77;;;2.60;;
2544;SDS011;36212;48.838;9.142;2022-08-21T06:57:28;3.30;;;3.10;;
2544;SDS011;36212;48.838;9.142;2022-08-21T07:00:00;3.23;;;2.90;;
2544;SDS011;36212;48.838;9.142;2022-08-21T07:02:36;4.40;;;3.27;;
2544;SDS011;36212;48.838;9.142;2022-08-21T07:05:12;2.80;;;2.60;;
2544;SDS011;36212;48.838;9.142;2022-08-21T07:07:49;3.13;;;2.93;;
2544;SDS011;36212;48.838;9.142;2022-08-21T07:10:21;3.27;;;2.80;;
2544;SDS011;36212;48.838;9.142;2022-08-21T07:12:55;3.70;;;3.00;;
2544;SDS011;36212;48.838;9.142;2022-08-21T07:15:31;4.73;;;3.00;;
2544;SDS011;36212;48.838;9.142;2022-08-21T07:18:03;4.03;;;2.83;;
2544;SDS011;36212;48.838;9.142;2022-08-21T07:20:36;3.00;;;2.80;;
2544;SDS011;36212;48.838;9.142;2022-08-21T07:23:22;5.97;;;3.70;;
2544;SDS011;36212;48.838;9.142;2022-08-21T07:26:02;4.70;;;3.23;;
2544;SDS011;36212;48.838;9.142;2022-08-21T07:28:35;5.67;;;3.10;;
2544;SDS011;36212;48.838;9.142;2022-08-21T07:31:08;4.10;;;3.10;;
2544;SDS011;36212;48.838;9.142;2022-08-21T07:33:45;3.10;;;2.80;;
2544;SDS011;36212;48.838;9.142;2022-08-21T07:36:17;4.07;;;3.27;;
2544;SDS011;36212;48.838;9.142;2022-08-21T07:38:50;4.40;;;2.97;;
2544;SDS011;36212;48.838;9.142;2022-08-21T07:41:25;4.20;;;3.20;;
2544;SDS011;36212;48.838;9.142;2022-08-21T07:43:59;3.20;;;2.90;;
2544;SDS011;36212;48.838;9.142;2022-08-21T07:46:32;3.43;;;2.70;;
2544;SDS011;36212;48.838;9.142;2022-08-21T07:49:04;3.93;;;3.20;;
2544;SDS011;36212;48.838;9.142;2022-08-21T07:51:36;3.73;;;3.30;;
2544;SDS011;36212;48.838;9.142;2022-08-21T07:54:09;6.17;;;3.30;;
2544;SDS011;36212;48.838;9.142;2022-08-21T07:56:47;3.17;;;2.97;;
2544;SDS011;36212;48.838;9.142;2022-08-21T07:59:19;3.77;;;3.00;;
2544;SDS011;36212;48.838;9.142;2022-08-21T08:01:51;3.77;;;3.17;;
2544;SDS011;36212;48.838;9.142;2022-08-21T08:04:23;6.37;;;3.40;;
2544;SDS011;36212;48.838;9.142;2022-08-21T08:06:57;4.10;;;3.30;;
2544;SDS011;36212;48.838;9.142;2022-08-21T08:09:29;4.70;;;3.37;;
2544;SDS011;36212;48.838;9.142;2022-08-21T08:12:01;3.50;;;3.20;;
2544;SDS011;36212;48.838;9.142;2022-08-21T08:14:34;4.03;;;3.63;;
2544;SDS011;36212;48.838;9.142;2022-08-21T08:17:06;7.30;;;4.27;;
2544;SDS011;36212;48.838;9.142;2022-08-21T08:19:38;3.80;;;3.50;;
2544;SDS011;36212;48.838;9.142;2022-08-21T08:22:14;3.57;;;3.27;;
2544;SDS011;36212;48.838;9.142;2022-08-21T08:24:51;3.83;;;3.53;;
2544;SDS011;36212;48.838;9.142;2022-08-21T08:27:24;3.70;;;3.40;;
2544;SDS011;36212;48.838;9.142;2022-08-21T08:29:56;4.07;;;3.67;;
2544;SDS011;36212;48.838;9.142;2022-08-21T08:32:29;3.60;;;3.07;;
2544;SDS011;36212;48.838;9.142;2022-08-21T08:35:01;5.87;;;3.87;;
2544;SDS011;36212;48.838;9.142;2022-08-21T08:37:35;5.00;;;3.67;;
2544;SDS011;36212;48.838;9.142;2022-08-21T08:40:25;4.60;;;4.07;;
2544;SDS011;36212;48.838;9.142;2022-08-21T08:43:11;3.80;;;3.50;;
2544;SDS011;36212;48.838;9.142;2022-08-21T08:45:46;3.77;;;3.47;;
2544;SDS011;36212;48.838;9.142;2022-08-21T08:48:41;5.97;;;3.90;;
2544;SDS011;36212;48.838;9.142;2022-08-21T08:51:38;5.13;;;4.63;;
2544;SDS011;36212;48.838;9.142;2022-08-21T08:54:28;3.43;;;3.23;;
2544;SDS011;36212;48.838;9.142;2022-08-21T08:57:22;4.30;;;3.33;;
2544;SDS011;36212;48.838;9.142;2022-08-21T08:59:58;4.27;;;3.97;;
2544;SDS011;36212;48.838;9.142;2022-08-21T09:02:38;4.47;;;4.07;;
2544;SDS011;36212;48.838;9.142;2022-08-21T09:05:24;4.30;;;3.80;;
2544;SDS011;36212;48.838;9.142;2022-08-21T09:08:15;4.17;;;3.80;;
2544;SDS011;36212;48.838;9.142;2022-08-21T09:11:26;5.20;;;4.20;;
2544;SDS011;36212;48.838;9.142;2022-08-21T09:21:40;4.47;;;3.80;;
2544;SDS011;36212;48.838;9.142;2022-08-21T09:27:42;5.33;;;3.90;;
2544;SDS011;36212;48.838;9.142;2022-08-21T09:30:14;3.60;;;3.30;;
2544;SDS011;36212;48.838;9.142;2022-08-21T09:32:47;5.33;;;3.53;;
2544;SDS011;36212;48.838;9.142;2022-08-21T09:35:20;4.00;;;3.70;;
2544;SDS011;36212;48.838;9.142;2022-08-21T09:37:56;4.70;;;3.60;;
2544;SDS011;36212;48.838;9.142;2022-08-21T09:40:41;7.23;;;3.57;;
2544;SDS011;36212;48.838;9.142;2022-08-21T09:43:17;6.00;;;3.70;;
2544;SDS011;36212;48.838;9.142;2022-08-21T09:46:08;4.37;;;3.63;;
2544;SDS011;36212;48.838;9.142;2022-08-21T09:48:52;6.83;;;4.37;;
2544;SDS011;36212;48.838;9.142;2022-08-21T09:51:34;4.50;;;3.60;;
2544;SDS011;36212;48.838;9.142;2022-08-21T09:54:32;3.60;;;3.30;;
2544;SDS011;36212;48.838;9.142;2022-08-21T10:00:19;4.87;;;3.03;;
2544;SDS011;36212;48.838;9.142;2022-08-21T10:05:53;3.90;;;3.40;;
2544;SDS011;36212;48.838;9.142;2022-08-21T10:08:35;6.30;;;3.70;;
2544;SDS011;36212;48.838;9.142;2022-08-21T10:11:12;5.37;;;3.50;;
2544;SDS011;36212;48.838;9.142;2022-08-21T10:14:01;4.07;;;3.53;;
2544;SDS011;36212;48.838;9.142;2022-08-21T10:17:07;4.50;;;3.40;;
2544;SDS011;36212;48.838;9.142;2022-08-21T10:20:29;6.13;;;3.60;;
2544;SDS011;36212;48.838;9.142;2022-08-21T10:26:46;5.40;;;3.67;;
2544;SDS011;36212;48.838;9.142;2022-08-21T10:29:57;3.53;;;3.23;;
2544;SDS011;36212;48.838;9.142;2022-08-21T10:39:02;4.10;;;3.80;;
2544;SDS011;36212;48.838;9.142;2022-08-21T10:42:35;4.33;;;3.93;;
2544;SDS011;36212;48.838;9.142;2022-08-21T10:49:32;4.57;;;3.30;;
2544;SDS011;36212;48.838;9.142;2022-08-21T11:00:22;5.10;;;3.57;;
2544;SDS011;36212;48.838;9.142;2022-08-21T11:06:19;3.77;;;3.53;;
2544;SDS011;36212;48.838;9.142;2022-08-21T11:08:59;4.60;;;3.60;;
2544;SDS011;36212;48.838;9.142;2022-08-21T11:11:50;3.87;;;3.57;;
2544;SDS011;36212;48.838;9.142;2022-08-21T11:15:05;3.93;;;3.30;;
2544;SDS011;36212;48.838;9.142;2022-08-21T11:21:14;4.27;;;3.67;;
2544;SDS011;36212;48.838;9.142;2022-08-21T11:24:30;3.40;;;3.20;;
2544;SDS011;36212;48.838;9.142;2022-08-21T11:30:08;5.63;;;3.70;;
2544;SDS011;36212;48.838;9.142;2022-08-21T11:35:47;5.93;;;3.40;;
2544;SDS011;36212;48.838;9.142;2022-08-21T11:38:42;3.27;;;3.03;;
2544;SDS011;36212;48.838;9.142;2022-08-21T11:44:15;3.93;;;3.57;;
2544;SDS011;36212;48.838;9.142;2022-08-21T11:50:44;4.13;;;3.70;;
2544;SDS011;36212;48.838;9.142;2022-08-21T11:56:11;3.93;;;2.90;;
2544;SDS011;36212;48.838;9.142;2022-08-21T11:58:59;4.23;;;3.20;;
2544;SDS011;36212;48.838;9.142;2022-08-21T12:01:41;3.47;;;3.03;;
2544;SDS011;36212;48.838;9.142;2022-08-21T12:04:22;6.60;;;3.47;;
2544;SDS011;36212;48.838;9.142;2022-08-21T12:07:12;3.60;;;3.30;;
2544;SDS011;36212;48.838;9.142;2022-08-21T12:10:10;4.10;;;3.53;;
2544;SDS011;36212;48.838;9.142;2022-08-21T12:13:06;4.97;;;3.50;;
2544;SDS011;36212;48.838;9.142;2022-08-21T12:16:14;3.70;;;3.40;;
2544;SDS011;36212;48.838;9.142;2022-08-21T12:21:49;3.30;;;3.10;;
2544;SDS011;36212;48.838;9.142;2022-08-21T12:27:21;4.90;;;3.30;;
2544;SDS011;36212;48.838;9.142;2022-08-21T12:30:40;4.03;;;2.60;;
2544;SDS011;36212;48.838;9.142;2022-08-21T12:39:04;3.20;;;2.97;;
2544;SDS011;36212;48.838;9.142;2022-08-21T12:41:50;3.30;;;3.10;;
2544;SDS011;36212;48.838;9.142;2022-08-21T12:44:56;3.73;;;3.13;;
2544;SDS011;36212;48.838;9.142;2022-08-21T12:47:48;3.87;;;3.57;;
2544;SDS011;36212;48.838;9.142;2022-08-21T12:51:13;4.10;;;3.00;;
2544;SDS011;36212;48.838;9.142;2022-08-21T12:53:56;4.00;;;2.70;;
2544;SDS011;36212;48.838;9.142;2022-08-21T12:56:32;2.87;;;2.67;;
2544;SDS011;36212;48.838;9.142;2022-08-21T12:59:06;4.30;;;3.00;;
2544;SDS011;36212;48.838;9.142;2022-08-21T13:01:46;3.60;;;3.23;;
2544;SDS011;36212;48.838;9.142;2022-08-21T13:04:23;3.20;;;3.00;;
2544;SDS011;36212;48.838;9.142;2022-08-21T13:07:10;2.83;;;2.53;;
2544;SDS011;36212;48.838;9.142;2022-08-21T13:10:04;4.93;;;3.00;;
2544;SDS011;36212;48.838;9.142;2022-08-21T13:12:56;3.53;;;3.00;;
2544;SDS011;36212;48.838;9.142;2022-08-21T13:15:50;3.17;;;2.97;;
2544;SDS011;36212;48.838;9.142;2022-08-21T13:18:53;3.67;;;3.20;;
2544;SDS011;36212;48.838;9.142;2022-08-21T13:21:39;3.80;;;3.50;;
2544;SDS011;36212;48.838;9.142;2022-08-21T13:24:16;3.10;;;2.90;;
2544;SDS011;36212;48.838;9.142;2022-08-21T13:27:24;3.33;;;3.03;;
2544;SDS011;36212;48.838;9.142;2022-08-21T13:30:03;3.70;;;3.40;;
2544;SDS011;36212;48.838;9.142;2022-08-21T13:32:52;5.73;;;5.17;;
2544;SDS011;36212;48.838;9.142;2022-08-21T13:35:34;2.90;;;2.70;;
2544;SDS011;36212;48.838;9.142;2022-08-21T13:38:45;4.60;;;2.90;;
2544;SDS011;36212;48.838;9.142;2022-08-21T13:41:23;3.27;;;2.97;;
2544;SDS011;36212;48.838;9.142;2022-08-21T13:44:16;3.23;;;2.97;;
2544;SDS011;36212;48.838;9.142;2022-08-21T13:46:54;3.60;;;3.30;;
2544;SDS011;36212;48.838;9.142;2022-08-21T13:49:30;3.40;;;3.10;;
2544;SDS011;36212;48.838;9.142;2022-08-21T13:52:15;3.73;;;3.03;;
2544;SDS011;36212;48.838;9.142;2022-08-21T13:54:56;3.30;;;2.93;;
2544;SDS011;36212;48.838;9.142;2022-08-21T13:57:38;3.07;;;2.73;;
2544;SDS011;36212;48.838;9.142;2022-08-21T14:00:12;3.27;;;2.97;;
2544;SDS011;36212;48.838;9.142;2022-08-21T14:03:06;4.13;;;3.10;;
2544;SDS011;36212;48.838;9.142;2022-08-21T14:05:55;3.03;;;2.83;;
2544;SDS011;36212;48.838;9.142;2022-08-21T14:08:32;3.57;;;3.27;;
2544;SDS011;36212;48.838;9.142;2022-08-21T14:11:10;7.00;;;3.17;;
2544;SDS011;36212;48.838;9.142;2022-08-21T14:13:44;4.13;;;2.90;;
2544;SDS011;36212;48.838;9.142;2022-08-21T14:16:40;3.37;;;2.80;;
2544;SDS011;36212;48.838;9.142;2022-08-21T14:19:26;5.30;;;3.93;;
2544;SDS011;36212;48.838;9.142;2022-08-21T14:22:36;3.60;;;3.30;;
2544;SDS011;36212;48.838;9.142;2022-08-21T14:31:12;3.10;;;2.67;;
2544;SDS011;36212;48.838;9.142;2022-08-21T14:33:51;4.17;;;3.10;;
2544;SDS011;36212;48.838;9.142;2022-08-21T14:36:24;3.00;;;2.47;;
2544;SDS011;36212;48.838;9.142;2022-08-21T14:38:57;3.70;;;2.90;;
2544;SDS011;36212;48.838;9.142;2022-08-21T14:41:29;2.90;;;2.70;;
2544;SDS011;36212;48.838;9.142;2022-08-21T14:44:02;2.97;;;2.77;;
2544;SDS011;36212;48.838;9.142;2022-08-21T14:46:40;5.30;;;3.10;;
2544;SDS011;36212;48.838;9.142;2022-08-21T14:49:27;3.20;;;2.90;;
2544;SDS011;36212;48.838;9.142;2022-08-21T14:52:00;3.03;;;2.77;;
2544;SDS011;36212;48.838;9.142;2022-08-21T14:54:33;3.70;;;2.80;;
2544;SDS011;36212;48.838;9.142;2022-08-21T14:57:08;2.50;;;2.30;;
2544;SDS011;36212;48.838;9.142;2022-08-21T14:59:42;3.60;;;2.77;;
2544;SDS011;36212;48.838;9.142;2022-08-21T15:02:14;2.83;;;2.63;;
2544;SDS011;36212;48.838;9.142;2022-08-21T15:04:46;3.13;;;2.77;;
2544;SDS011;36212;48.838;9.142;2022-08-21T15:07:20;2.90;;;2.60;;
2544;SDS011;36212;48.838;9.142;2022-08-21T15:09:53;3.07;;;2.70;;
2544;SDS011;36212;48.838;9.142;2022-08-21T15:12:25;2.80;;;2.60;;
2544;SDS011;36212;48.838;9.142;2022-08-21T15:14:58;3.93;;;3.20;;
2544;SDS011;36212;48.838;9.142;2022-08-21T15:17:30;3.00;;;2.77;;
2544;SDS011;36212;48.838;9.142;2022-08-21T15:20:02;2.93;;;2.73;;
2544;SDS011;36212;48.838;9.142;2022-08-21T15:22:38;3.30;;;3.00;;
2544;SDS011;36212;48.838;9.142;2022-08-21T15:25:17;2.83;;;2.60;;
2544;SDS011;36212;48.838;9.142;2022-08-21T15:27:50;4.07;;;3.17;;
2544;SDS011;36212;48.838;9.142;2022-08-21T15:30:22;4.23;;;2.77;;
2544;SDS011;36212;48.838;9.142;2022-08-21T15:32:55;3.60;;;3.30;;
2544;SDS011;36212;48.838;9.142;2022-08-21T15:35:27;3.10;;;2.80;;
2544;SDS011;36212;48.838;9.142;2022-08-21T15:37:59;2.90;;;2.70;;
2544;SDS011;36212;48.838;9.142;2022-08-21T15:40:31;3.50;;;3.20;;
2544;SDS011;36212;48.838;9.142;2022-08-21T15:43:06;3.17;;;2.97;;
2544;SDS011;36212;48.838;9.142;2022-08-21T15:45:52;3.77;;;2.77;;
2544;SDS011;36212;48.838;9.142;2022-08-21T15:48:25;3.10;;;2.67;;
2544;SDS011;36212;48.838;9.142;2022-08-21T15:50:58;6.03;;;2.90;;
2544;SDS011;36212;48.838;9.142;2022-08-21T15:53:30;3.10;;;2.90;;
2544;SDS011;36212;48.838;9.142;2022-08-21T15:56:13;3.47;;;2.60;;
2544;SDS011;36212;48.838;9.142;2022-08-21T16:01:55;3.73;;;2.80;;
2544;SDS011;36212;48.838;9.142;2022-08-21T16:04:27;4.00;;;3.00;;
2544;SDS011;36212;48.838;9.142;2022-08-21T16:06:59;3.30;;;2.93;;
2544;SDS011;36212;48.838;9.142;2022-08-21T16:09:41;3.23;;;2.90;;
2544;SDS011;36212;48.838;9.142;2022-08-21T16:12:17;3.50;;;3.20;;
2544;SDS011;36212;48.838;9.142;2022-08-21T16:14:57;3.10;;;2.90;;
2544;SDS011;36212;48.838;9.142;2022-08-21T16:17:33;2.53;;;2.30;;
2544;SDS011;36212;48.838;9.142;2022-08-21T16:20:09;2.93;;;2.73;;
2544;SDS011;36212;48.838;9.142;2022-08-21T16:22:47;4.40;;;2.73;;
2544;SDS011;36212;48.838;9.142;2022-08-21T16:25:20;3.20;;;3.00;;
2544;SDS011;36212;48.838;9.142;2022-08-21T16:27:55;3.60;;;2.90;;
2544;SDS011;36212;48.838;9.142;2022-08-21T16:30:31;3.10;;;2.80;;
2544;SDS011;36212;48.838;9.142;2022-08-21T16:33:05;3.63;;;3.30;;
2544;SDS011;36212;48.838;9.142;2022-08-21T16:35:49;4.63;;;3.40;;
2544;SDS011;36212;48.838;9.142;2022-08-21T16:38:22;4.70;;;3.10;;
2544;SDS011;36212;48.838;9.142;2022-08-21T16:40:56;3.00;;;2.80;;
2544;SDS011;36212;48.838;9.142;2022-08-21T16:43:29;6.27;;;2.77;;
2544;SDS011;36212;48.838;9.142;2022-08-21T16:46:03;3.00;;;2.77;;
2544;SDS011;36212;48.838;9.142;2022-08-21T16:48:37;3.70;;;3.30;;
2544;SDS011;36212;48.838;9.142;2022-08-21T16:51:11;4.30;;;2.97;;
2544;SDS011;36212;48.838;9.142;2022-08-21T16:53:45;3.37;;;3.17;;
2544;SDS011;36212;48.838;9.142;2022-08-21T16:56:18;2.97;;;2.70;;
2544;SDS011;36212;48.838;9.142;2022-08-21T16:58:50;4.57;;;3.20;;
2544;SDS011;36212;48.838;9.142;2022-08-21T17:01:28;5.30;;;3.10;;
2544;SDS011;36212;48.838;9.142;2022-08-21T17:04:03;3.53;;;3.23;;
2544;SDS011;36212;48.838;9.142;2022-08-21T17:06:36;3.60;;;2.80;;
2544;SDS011;36212;48.838;9.142;2022-08-21T17:09:08;3.10;;;2.87;;
2544;SDS011;36212;48.838;9.142;2022-08-21T17:11:42;3.17;;;2.70;;
2544;SDS011;36212;48.838;9.142;2022-08-21T17:14:20;3.73;;;3.30;;
2544;SDS011;36212;48.838;9.142;2022-08-21T17:16:54;3.27;;;3.07;;
2544;SDS011;36212;48.838;9.142;2022-08-21T17:19:28;3.90;;;2.90;;
2544;SDS011;36212;48.838;9.142;2022-08-21T17:22:03;3.60;;;3.37;;
2544;SDS011;36212;48.838;9.142;2022-08-21T17:24:37;3.63;;;2.87;;
2544;SDS011;36212;48.838;9.142;2022-08-21T17:27:09;4.80;;;3.73;;